This is the latest recevied weather packets stored in our database for station/object GW7287. If no packets are shown the sender has not sent any weather packets the latest 10 day(s).
| Time | Temp. | Humidity | Pressure | Rain* | Wind** | Luminosity | Snow |
|---|---|---|---|---|---|---|---|
| 1777640564 | 21.11° C | 46% | 933.5 hPa | - | - | - | - |
| 1777636948 | 19.44° C | 51% | 933.7 hPa | - | - | - | - |
| 1777633428 | 18.33° C | 62% | 933.8 hPa | - | - | - | - |
| 1777629827 | 16.67° C | 66% | 933.9 hPa | - | - | - | - |
| 1777626095 | 13.89° C | 77% | 933.7 hPa | - | - | - | - |
| 1777622610 | 12.78° C | 86% | 933.5 hPa | - | - | - | - |
| 1777619027 | 10.56° C | 93% | 933.4 hPa | - | - | - | - |
| 1777615423 | 10.56° C | 90% | 933.1 hPa | - | - | - | - |
| 1777611702 | 11.11° C | 87% | 933.1 hPa | - | - | - | - |
| 1777608113 | 12.22° C | 84% | 932.9 hPa | - | - | - | - |
| 1777604511 | 12.78° C | 81% | 933.1 hPa | - | - | - | - |
| 1777600920 | 12.78° C | 80% | 933.2 hPa | - | - | - | - |
| 1777597307 | 12.78° C | 78% | 933.2 hPa | - | - | - | - |
| 1777593672 | 13.33° C | 78% | 933.2 hPa | - | - | - | - |
| 1777590172 | 13.89° C | 76% | 933.2 hPa | - | - | - | - |
| 1777586608 | 14.44° C | 75% | 933.1 hPa | - | - | - | - |
| 1777583069 | 14.44° C | 74% | 932.5 hPa | - | - | - | - |
| 1777579234 | 15.56° C | 66% | 932 hPa | - | - | - | - |
| 1777575822 | 17.22° C | 53% | 931.8 hPa | - | - | - | - |
| 1777572236 | 18.33° C | 53% | 931.9 hPa | - | - | - | - |
| 1777568551 | 18.33° C | 55% | 931.7 hPa | - | - | - | - |
| 1777564874 | 18.33° C | 54% | 931.8 hPa | - | - | - | - |
| 1777561312 | 17.22° C | 57% | 932.1 hPa | - | - | - | - |
| 1777557629 | 16.67° C | 62% | 932.1 hPa | - | - | - | - |
| 1777554216 | 15° C | 67% | 932.2 hPa | - | - | - | - |
* Rain since midnight (hover to see other rain measurements)
** Current wind speed in m/s (hover to see current wind gust speed)